Airfield :
LOGIN :

Register | Disclaimer

   EN    FR    IT 

 










Legend :    VFR   Marginal VFR   IFR   Intensive IFR   Very Intensive IFR
Visi :
Ceiling :
>= 8 km
>= 3000ft
5 to 8 km
1000 to 3000 ft
1500m to 5 km
500 to 1000 ft
800 to 1500m
200 to 500 ft
< 800m
< 200 ft
Symbols :   Thunderstorms  Fog  Heavy snow  Heavy precipitations  Wind > 20 kt
SIGMETs :     Misc.  Thunderstorms  Icing  Turbulence  Mountain Waves  Volcanic Ashes







- Airport Elevation : 1906 ft
- IATA code : INN


LOWI - Innsbruck

CURRENT METAR :
  • 210920Z 27007KT 9999 FEW070 SCT300 21/11 Q1017 NOSIG

EXPIRED METARs :
  • 210850Z 27007KT CAVOK 20/11 Q1017 NOSIG
  • 210820Z 27007KT CAVOK 18/11 Q1017 NOSIG
  • 210750Z 27004KT 220V310 CAVOK 17/11 Q1018 NOSIG
  • 210720Z 28005KT CAVOK 15/10 Q1018 NOSIG
  • 210650Z VRB02KT CAVOK 14/10 Q1018 NOSIG

TAF TAF LOWI
Valid from the 21 at 06:00 until the 22 at 06:00 UTC


210515Z 2106/2206 27005KT CAVOK TX27/2114Z TN11/2106Z
TEMPO 2106/2110 27009KT
BECMG 2110/2112 09006KT 9999 FEW070 SCT300
PROB30
TEMPO 2111/2117 11012G22KT FEW060TCU BKN070
BECMG 2117/2119 27006KT -SHRA SCT060 BKN080
TEMPO 2118/2202 29015G25KT SHRA SCT030 BKN050 FEW050TCU
No reported NOTAMs for that airfield.



MET'MAP, your aeronautical weather chart ! - Copyright ORBIFLY December 2007 - Disclaimer

ORBIFLY MET'MAP TEAM :

Programming & Development : Alexandra Zaïnal
Concept & Development : Baudouin d'Aumeries
Co-Development & Prog : Marc-Olivier Méhu
Technical & hardware support : Manuel Goepfert

Contact : metmap@orbifly.com




SOURCES & CREDITS :

   NOAA